createdAt,value
2019-02-10T00:00:55.951Z,5.67
2019-02-10T00:05:59.599Z,9.80
2019-02-10T00:11:03.553Z,8.70
2019-02-10T00:16:12.626Z,8.97
2019-02-10T00:21:16.320Z,7.60
2019-02-10T00:26:20.019Z,8.37
2019-02-10T00:31:23.717Z,7.10
2019-02-10T00:36:32.833Z,7.63
2019-02-10T00:41:33.187Z,8.67
2019-02-10T00:46:37.111Z,10.47
2019-02-10T00:51:41.190Z,7.67
2019-02-10T00:56:44.895Z,5.20
2019-02-10T01:01:48.582Z,9.27
2019-02-10T01:06:52.539Z,5.33
2019-02-10T01:11:56.458Z,9.17
2019-02-10T01:17:00.142Z,6.13
2019-02-10T01:22:04.235Z,6.77
2019-02-10T01:27:08.130Z,4.50
2019-02-10T01:32:11.810Z,6.23
2019-02-10T01:37:15.485Z,5.97
2019-02-10T01:42:19.230Z,6.07
2019-02-10T01:47:23.204Z,10.90
2019-02-10T01:52:26.932Z,10.87
2019-02-10T01:57:30.719Z,7.73
2019-02-10T02:02:34.410Z,7.77
2019-02-10T02:07:38.137Z,9.67
2019-02-10T02:12:41.987Z,9.73
2019-02-10T02:17:45.994Z,11.30
2019-02-10T02:22:49.645Z,9.30
2019-02-10T02:27:53.304Z,10.40
2019-02-10T02:32:57.201Z,10.43
2019-02-10T02:38:00.864Z,9.93
2019-02-10T02:43:04.729Z,11.13
2019-02-10T02:48:08.475Z,10.80
2019-02-10T02:53:12.162Z,8.33
2019-02-10T02:58:15.868Z,14.03
2019-02-10T03:03:19.532Z,3.87
2019-02-10T03:08:23.204Z,9.20
2019-02-10T03:13:26.901Z,9.20
2019-02-10T03:18:30.577Z,10.20
2019-02-10T03:23:34.255Z,9.93
2019-02-10T03:28:38.251Z,8.77
2019-02-10T03:33:41.923Z,8.47
2019-02-10T03:38:46.073Z,13.43
2019-02-10T03:43:49.813Z,12.27
2019-02-10T03:48:53.544Z,7.80
2019-02-10T03:53:57.228Z,6.83
2019-02-10T03:59:00.924Z,12.10
2019-02-10T04:04:04.703Z,10.03
2019-02-10T04:09:08.456Z,10.97
2019-02-10T04:14:12.392Z,7.27
2019-02-10T04:19:16.080Z,6.57
2019-02-10T04:24:20.316Z,10.53
2019-02-10T04:29:24.027Z,11.87
2019-02-10T04:34:28.062Z,5.83
2019-02-10T04:39:31.759Z,13.43
2019-02-10T04:44:35.438Z,9.80
2019-02-10T04:49:39.099Z,8.07
2019-02-10T04:54:43.143Z,11.20
2019-02-10T04:59:46.812Z,7.83
2019-02-10T05:04:50.518Z,13.57
2019-02-10T05:09:54.500Z,8.17
2019-02-10T05:14:58.484Z,9.40
2019-02-10T05:20:02.267Z,7.97
2019-02-10T05:25:06.207Z,7.70
2019-02-10T05:30:09.905Z,11.30
2019-02-10T05:35:13.613Z,7.93
2019-02-10T05:40:17.287Z,10.27
2019-02-10T05:45:20.974Z,15.03
2019-02-10T05:50:24.669Z,12.73
2019-02-10T05:55:28.341Z,9.57
2019-02-10T06:00:32.149Z,9.07
2019-02-10T06:05:35.958Z,17.00
2019-02-10T06:10:39.677Z,14.70
2019-02-10T06:15:43.630Z,13.93
2019-02-10T06:20:47.566Z,9.30
2019-02-10T06:25:51.345Z,12.23
2019-02-10T06:30:55.381Z,8.03
2019-02-10T06:35:59.145Z,12.50
2019-02-10T06:41:02.939Z,10.17
2019-02-10T06:46:06.907Z,12.97
2019-02-10T06:51:10.703Z,6.40
2019-02-10T06:56:14.654Z,10.93
2019-02-10T07:01:23.772Z,12.73
2019-02-10T07:06:27.695Z,9.80
2019-02-10T07:11:31.707Z,11.87
2019-02-10T07:16:54.392Z,10.90
2019-02-10T07:21:58.080Z,8.73
2019-02-10T07:27:08.906Z,9.90
2019-02-10T07:32:21.409Z,8.00
2019-02-10T07:38:05.376Z,11.60
2019-02-10T07:43:28.260Z,15.23
2019-02-10T07:48:41.183Z,8.87
2019-02-10T07:54:00.259Z,9.30
2019-02-10T07:59:47.588Z,9.23
2019-02-10T08:05:19.409Z,8.53
2019-02-10T08:11:13.628Z,8.73
2019-02-10T08:16:51.754Z,7.37
2019-02-10T08:22:35.696Z,8.40
2019-02-10T08:28:05.319Z,8.70
2019-02-10T08:33:24.147Z,7.33
2019-02-10T08:39:09.621Z,10.03
2019-02-10T08:44:26.524Z,6.13
2019-02-10T08:50:00.589Z,10.67
2019-02-10T08:55:04.409Z,8.97
2019-02-10T09:00:09.598Z,7.67
2019-02-10T09:05:13.290Z,9.07
2019-02-10T09:10:16.996Z,8.03
2019-02-10T09:15:20.773Z,8.43
2019-02-10T09:20:25.067Z,8.10
2019-02-10T09:25:28.828Z,8.37
2019-02-10T09:30:32.665Z,6.73
2019-02-10T09:35:36.939Z,11.30
2019-02-10T09:40:40.664Z,9.73
2019-02-10T09:45:44.483Z,11.30
2019-02-10T09:50:48.187Z,6.77
2019-02-10T09:55:52.141Z,5.20
2019-02-10T10:00:56.129Z,6.87
2019-02-10T10:05:59.909Z,8.77
2019-02-10T10:11:03.702Z,7.90
2019-02-10T10:16:07.433Z,9.27
2019-02-10T10:21:11.516Z,7.60
2019-02-10T10:26:16.525Z,5.53
2019-02-10T10:31:20.553Z,9.17
2019-02-10T10:36:24.300Z,11.27
2019-02-10T10:41:28.037Z,8.10
2019-02-10T10:46:31.809Z,6.57
2019-02-10T10:51:35.507Z,8.80
2019-02-10T10:56:39.494Z,5.73
2019-02-10T11:07:46.356Z,7.27
2019-02-10T11:12:50.387Z,9.53
2019-02-10T11:17:54.129Z,7.87
2019-02-10T11:29:00.963Z,7.07
2019-02-10T11:34:04.823Z,6.13
2019-02-10T11:39:09.630Z,32.53
2019-02-10T11:44:13.697Z,8.87
2019-02-10T11:49:17.663Z,11.90
2019-02-10T11:54:21.345Z,10.80
2019-02-10T11:59:25.073Z,8.90
2019-02-10T12:04:28.820Z,8.50
2019-02-10T12:09:32.533Z,18.67
2019-02-10T12:14:36.263Z,8.47
2019-02-10T12:19:40.661Z,10.73
2019-02-10T12:24:44.705Z,11.27
2019-02-10T12:29:48.397Z,14.67
2019-02-10T12:34:52.311Z,11.63
2019-02-10T12:39:59.883Z,6.60
2019-02-10T12:45:01.731Z,4.73
2019-02-10T12:50:06.868Z,9.50
2019-02-10T12:55:11.151Z,7.27
2019-02-10T13:00:15.989Z,6.63
2019-02-10T13:05:19.768Z,7.73
2019-02-10T13:10:23.465Z,9.77
2019-02-10T13:15:28.887Z,8.03
2019-02-10T13:20:32.791Z,11.37
2019-02-10T13:25:36.543Z,7.00
2019-02-10T13:30:40.509Z,9.93
2019-02-10T13:35:44.195Z,10.57
2019-02-10T13:40:47.921Z,7.80
2019-02-10T13:45:51.930Z,9.87
2019-02-10T13:50:55.629Z,16.80
2019-02-10T13:55:59.394Z,7.07
2019-02-10T14:01:03.337Z,20.33
2019-02-10T14:06:08.001Z,10.40
2019-02-10T14:11:11.752Z,9.53
2019-02-10T14:16:15.575Z,8.00
2019-02-10T14:21:19.618Z,8.73
2019-02-10T14:26:23.451Z,7.77
2019-02-10T14:31:27.180Z,6.47
2019-02-10T14:36:31.008Z,7.17
2019-02-10T14:41:35.582Z,17.60
2019-02-10T14:46:40.352Z,8.40
2019-02-10T14:51:47.834Z,9.67
2019-02-10T14:56:51.543Z,8.90
2019-02-10T15:01:55.244Z,10.03
2019-02-10T15:06:59.017Z,11.67
2019-02-10T15:12:02.779Z,9.00
2019-02-10T15:17:06.799Z,9.03
2019-02-10T15:22:10.495Z,10.23
2019-02-10T15:27:14.533Z,10.57
2019-02-10T15:32:18.288Z,5.20
2019-02-10T15:37:21.991Z,4.63
2019-02-10T15:42:25.794Z,4.27
2019-02-10T15:47:29.509Z,3.17
2019-02-10T15:52:33.279Z,3.97
2019-02-10T15:57:37.065Z,3.53
2019-02-10T16:02:40.802Z,3.90
2019-02-10T16:07:44.490Z,2.37
2019-02-10T16:12:48.176Z,1.43
2019-02-10T16:17:51.877Z,1.70
2019-02-10T16:22:56.424Z,2.33
2019-02-10T16:28:00.147Z,1.93
2019-02-10T16:33:04.384Z,3.00
2019-02-10T16:38:08.479Z,3.67
2019-02-10T16:43:12.439Z,2.80
2019-02-10T16:48:16.168Z,3.47
2019-02-10T16:53:19.982Z,9.30
2019-02-10T16:58:23.731Z,5.03
2019-02-10T17:03:27.501Z,2.37
2019-02-10T17:08:31.241Z,4.87
2019-02-10T17:13:35.292Z,1.97
2019-02-10T17:18:41.360Z,3.17
2019-02-10T17:23:45.169Z,2.27
2019-02-10T17:28:49.196Z,2.13
2019-02-10T17:33:53.206Z,2.20
2019-02-10T17:38:56.882Z,2.17
2019-02-10T17:44:00.595Z,2.17
2019-02-10T17:49:04.284Z,3.50
2019-02-10T17:54:08.048Z,2.67
2019-02-10T17:59:11.828Z,1.73
2019-02-10T18:04:15.523Z,4.37
2019-02-10T18:09:19.705Z,2.40
2019-02-10T18:14:55.305Z,2.77
2019-02-10T18:20:27.621Z,1.73
2019-02-10T18:25:53.624Z,1.70
2019-02-10T18:31:04.349Z,5.03
2019-02-10T18:36:16.344Z,7.57
2019-02-10T18:41:24.958Z,1.37
2019-02-10T18:46:44.640Z,2.83
2019-02-10T18:52:04.932Z,5.47
2019-02-10T18:57:30.902Z,1.20
2019-02-10T19:02:50.153Z,1.80
2019-02-10T19:08:15.522Z,1.20
2019-02-10T19:13:50.216Z,2.60
2019-02-10T19:19:07.502Z,1.63
2019-02-10T19:24:21.277Z,1.90
2019-02-10T19:29:37.315Z,1.13
2019-02-10T19:34:59.845Z,1.70
2019-02-10T19:40:23.783Z,2.30
2019-02-10T19:45:49.556Z,1.47
2019-02-10T19:51:13.700Z,1.33
2019-02-10T19:56:36.523Z,1.73
2019-02-10T20:01:48.703Z,1.80
2019-02-10T20:07:04.811Z,3.17
2019-02-10T20:12:16.434Z,0.90
2019-02-10T20:17:45.141Z,0.73
2019-02-10T20:23:04.303Z,1.03
2019-02-10T20:28:22.976Z,0.87
2019-02-10T20:33:48.733Z,0.70
2019-02-10T20:39:10.906Z,1.07
2019-02-10T20:44:26.891Z,0.70
2019-02-10T20:49:45.691Z,1.77
2019-02-10T20:55:12.695Z,0.77
2019-02-10T21:00:30.667Z,0.80
2019-02-10T21:05:42.126Z,0.83
2019-02-10T21:11:09.410Z,0.60
2019-02-10T21:16:31.281Z,0.50
2019-02-10T21:21:54.205Z,0.47
2019-02-10T21:27:15.230Z,1.50
2019-02-10T21:32:36.945Z,0.90
2019-02-10T21:37:50.886Z,0.40
2019-02-10T21:43:18.440Z,0.90
2019-02-10T21:48:28.892Z,0.60
2019-02-10T21:53:32.604Z,1.03
2019-02-10T21:58:36.306Z,0.63
2019-02-10T22:03:40.411Z,0.30
2019-02-10T22:08:44.757Z,2.10
2019-02-10T22:13:48.449Z,0.40
2019-02-10T22:18:52.351Z,0.50
2019-02-10T22:23:56.142Z,1.20
2019-02-10T22:28:59.904Z,0.40
2019-02-10T22:34:03.723Z,0.93
2019-02-10T22:39:07.544Z,0.50
2019-02-10T22:44:11.192Z,0.53
2019-02-10T22:49:15.987Z,0.30
2019-02-10T22:54:20.072Z,2.03
2019-02-10T22:59:24.280Z,1.27
2019-02-10T23:04:28.086Z,0.60
2019-02-10T23:09:31.823Z,2.23
2019-02-10T23:14:36.016Z,0.40
2019-02-10T23:19:40.255Z,0.20
2019-02-10T23:24:44.074Z,0.40
2019-02-10T23:29:47.761Z,1.60
2019-02-10T23:34:51.517Z,1.40
2019-02-10T23:39:55.181Z,0.20
2019-02-10T23:44:58.888Z,0.53
2019-02-10T23:50:02.629Z,0.20
2019-02-10T23:55:06.539Z,0.30
